Time;durP1;ratioP1;P1;durP2;ratioP2;P2;SDS_P1;SDS_P2;PMS_P1;PMS_P2;Temp;Humidity;BMP_temperature;BMP_pressure;BME280_temperature;BME280_humidity;BME280_pressure;Samples;Min_cycle;Max_cycle;Signal;HPM_P1;HPM_P2
2023/01/30 00:00:17;;;;;;;19.98;14.15;;;;;;;;;;6253500;22;20022;-87
2023/01/30 00:02:44;;;;;;;23.20;16.48;;;;;;;;;;6235039;22;20030;-86
2023/01/30 00:05:14;;;;;;;22.83;17.65;;;;;;;;;;6256876;22;20408;-88
2023/01/30 00:07:44;;;;;;;26.45;16.05;;;;;;;;;;6228515;22;20031;-87
2023/01/30 00:10:11;;;;;;;22.02;16.67;;;;;;;;;;6250793;22;20332;-88
2023/01/30 00:12:39;;;;;;;22.98;17.33;;;;;;;;;;6228823;22;20462;-87
2023/01/30 00:15:09;;;;;;;21.75;15.80;;;;;;;;;;6228525;22;20016;-88
2023/01/30 00:17:38;;;;;;;20.58;15.73;;;;;;;;;;6254751;22;20016;-89
2023/01/30 00:20:12;;;;;;;30.50;20.27;;;;;;;;;;6252665;22;20026;-87
2023/01/30 00:22:41;;;;;;;;;;;;;;;;;;6229311;22;20591;-87
2023/01/30 00:25:09;;;;;;;26.30;19.38;;;;;;;;;;6228949;22;19922;-87
2023/01/30 00:27:37;;;;;;;20.58;15.93;;;;;;;;;;6253920;22;20023;-87
2023/01/30 00:30:06;;;;;;;22.55;17.33;;;;;;;;;;6229508;22;20020;-86
2023/01/30 00:32:36;;;;;;;20.23;15.30;;;;;;;;;;6257707;22;20016;-87
2023/01/30 00:35:05;;;;;;;23.73;17.70;;;;;;;;;;6266635;22;20022;-89
2023/01/30 00:37:35;;;;;;;24.38;17.38;;;;;;;;;;6293625;22;20466;-88
2023/01/30 00:40:03;;;;;;;24.92;17.92;;;;;;;;;;6235112;22;20024;-86
2023/01/30 00:48:07;;;;;;;23.08;15.60;;;;;;;;;;6228942;22;20024;-89
2023/01/30 00:50:42;;;;;;;20.08;17.13;;;;;;;;;;6224474;22;20479;-87
2023/01/30 00:53:14;;;;;;;22.48;15.82;;;;;;;;;;6259416;22;20012;-86
2023/01/30 00:55:42;;;;;;;19.95;15.73;;;;;;;;;;6224390;22;20022;-87
2023/01/30 00:58:09;;;;;;;23.67;15.93;;;;;;;;;;6288319;22;20059;-87
2023/01/30 01:00:37;;;;;;;25.45;16.75;;;;;;;;;;6249401;22;20012;-87
2023/01/30 01:03:06;;;;;;;24.27;16.83;;;;;;;;;;6222479;22;20027;-86
2023/01/30 01:05:36;;;;;;;24.15;15.65;;;;;;;;;;6224962;22;20018;-87
2023/01/30 01:08:06;;;;;;;21.02;16.35;;;;;;;;;;6223354;22;20020;-87
2023/01/30 01:10:34;;;;;;;21.90;16.90;;;;;;;;;;6249389;22;20015;-87
2023/01/30 01:13:05;;;;;;;28.88;18.13;;;;;;;;;;6249314;22;20019;-87
2023/01/30 01:15:35;;;;;;;22.05;15.55;;;;;;;;;;6249353;22;20035;-87
2023/01/30 01:18:03;;;;;;;22.02;15.80;;;;;;;;;;6259999;22;20331;-87
2023/01/30 01:20:32;;;;;;;19.15;13.95;;;;;;;;;;6225957;22;20558;-87
2023/01/30 01:23:00;;;;;;;23.95;15.45;;;;;;;;;;6225859;22;20034;-86
2023/01/30 01:25:29;;;;;;;19.95;13.65;;;;;;;;;;6252693;22;20022;-86
2023/01/30 01:27:57;;;;;;;19.30;12.75;;;;;;;;;;6224402;22;20601;-88
2023/01/30 01:30:25;;;;;;;24.17;16.50;;;;;;;;;;6222728;22;20612;-87
2023/01/30 01:32:52;;;;;;;18.38;13.38;;;;;;;;;;6224563;22;20478;-87
2023/01/30 01:35:20;;;;;;;24.60;14.93;;;;;;;;;;6223600;22;20518;-88
2023/01/30 01:37:53;;;;;;;25.52;16.73;;;;;;;;;;6248994;22;20016;-87
2023/01/30 01:43:18;;;;;;;18.33;15.00;;;;;;;;;;6257318;22;20242;-86
2023/01/30 01:45:48;;;;;;;19.60;13.15;;;;;;;;;;6259415;22;20027;-89
2023/01/30 01:48:22;;;;;;;15.75;11.95;;;;;;;;;;6250214;22;20020;-88
2023/01/30 01:50:58;;;;;;;20.58;15.63;;;;;;;;;;6248687;22;20023;-87
2023/01/30 01:53:33;;;;;;;18.33;14.32;;;;;;;;;;6283779;22;20016;-88
2023/01/30 01:56:05;;;;;;;20.85;14.13;;;;;;;;;;6249719;22;20023;-87
2023/01/30 01:58:37;;;;;;;24.92;13.68;;;;;;;;;;6249923;22;20451;-88
2023/01/30 02:01:08;;;;;;;14.85;11.82;;;;;;;;;;6249806;22;20046;-88
2023/01/30 02:03:38;;;;;;;16.10;12.38;;;;;;;;;;6224403;22;20443;-88
2023/01/30 02:06:09;;;;;;;15.88;12.48;;;;;;;;;;6222519;22;20578;-89
2023/01/30 02:08:41;;;;;;;18.35;13.10;;;;;;;;;;6259235;22;20355;-88
2023/01/30 02:11:21;;;;;;;17.40;12.15;;;;;;;;;;6225501;22;20500;-88
2023/01/30 02:13:50;;;;;;;15.90;11.65;;;;;;;;;;6224014;22;20038;-87
2023/01/30 02:16:19;;;;;;;18.13;14.10;;;;;;;;;;6249987;22;20019;-89
2023/01/30 02:18:47;;;;;;;18.80;13.35;;;;;;;;;;6248659;22;20022;-88
2023/01/30 02:21:32;;;;;;;18.05;13.95;;;;;;;;;;6224022;22;20026;-87
2023/01/30 02:24:31;;;;;;;20.50;11.32;;;;;;;;;;6223742;22;20589;-87
2023/01/30 02:27:19;;;;;;;16.02;12.27;;;;;;;;;;6222282;22;20020;-88
2023/01/30 02:30:00;;;;;;;18.17;10.95;;;;;;;;;;6223514;22;20031;-88
2023/01/30 02:32:34;;;;;;;15.75;11.05;;;;;;;;;;6249314;22;20026;-89
2023/01/30 02:35:16;;;;;;;15.20;11.43;;;;;;;;;;6226113;22;20023;-89
2023/01/30 02:37:55;;;;;;;16.58;12.32;;;;;;;;;;6248205;22;20020;-90
2023/01/30 02:40:39;;;;;;;18.35;10.95;;;;;;;;;;6248248;22;20034;-87
2023/01/30 02:43:15;;;;;;;18.02;12.23;;;;;;;;;;6222289;22;20027;-89
2023/01/30 02:45:50;;;;;;;16.50;13.93;;;;;;;;;;6259508;22;20015;-88
2023/01/30 02:48:22;;;;;;;18.02;12.50;;;;;;;;;;6223440;22;20020;-88
2023/01/30 02:50:55;;;;;;;15.30;12.52;;;;;;;;;;6258196;22;20011;-88
2023/01/30 02:53:28;;;;;;;19.50;12.55;;;;;;;;;;6222785;22;20378;-88
2023/01/30 02:55:55;;;;;;;16.70;12.43;;;;;;;;;;6248190;22;20394;-88
2023/01/30 02:58:29;;;;;;;20.30;14.30;;;;;;;;;;6223577;22;20019;-88
2023/01/30 03:01:13;;;;;;;17.83;12.43;;;;;;;;;;6249444;22;20016;-88
2023/01/30 03:03:53;;;;;;;21.05;14.57;;;;;;;;;;6248403;22;20016;-88
2023/01/30 03:06:37;;;;;;;21.63;14.30;;;;;;;;;;6286422;22;20015;-88
2023/01/30 03:09:15;;;;;;;17.85;13.45;;;;;;;;;;6223017;22;20035;-88
2023/01/30 03:11:47;;;;;;;21.15;13.23;;;;;;;;;;6259377;22;20016;-87
2023/01/30 03:14:20;;;;;;;22.48;12.98;;;;;;;;;;6252159;22;20020;-88
2023/01/30 03:16:52;;;;;;;22.08;14.43;;;;;;;;;;6222575;22;20015;-88
2023/01/30 03:19:21;;;;;;;22.02;15.65;;;;;;;;;;6285600;22;20034;-87
2023/01/30 03:21:49;;;;;;;23.38;15.77;;;;;;;;;;6248018;22;20011;-87
2023/01/30 03:24:16;;;;;;;20.30;14.43;;;;;;;;;;6248234;22;20016;-88
2023/01/30 03:26:47;;;;;;;19.33;14.63;;;;;;;;;;6246318;22;20617;-87
2023/01/30 03:29:20;;;;;;;;;;;;;;;;;;6259585;22;20015;-90
2023/01/30 03:31:47;;;;;;;22.08;15.10;;;;;;;;;;6223325;22;19915;-88
2023/01/30 03:34:14;;;;;;;24.10;14.95;;;;;;;;;;6255093;22;20016;-89
2023/01/30 03:36:45;;;;;;;22.02;13.95;;;;;;;;;;6223286;22;20022;-90
2023/01/30 03:39:16;;;;;;;23.30;16.63;;;;;;;;;;6248528;22;20016;-87
2023/01/30 03:41:46;;;;;;;20.90;15.48;;;;;;;;;;6224179;22;20016;-88
2023/01/30 03:44:17;;;;;;;19.90;13.68;;;;;;;;;;6252824;22;20485;-88
2023/01/30 03:46:44;;;;;;;21.02;14.57;;;;;;;;;;6285650;22;20481;-87
2023/01/30 03:49:17;;;;;;;24.23;14.20;;;;;;;;;;6250939;22;20016;-88
2023/01/30 03:51:49;;;;;;;23.88;13.95;;;;;;;;;;6250741;22;20020;-89
2023/01/30 03:54:18;;;;;;;18.67;14.15;;;;;;;;;;6225432;22;20019;-89
2023/01/30 03:56:51;;;;;;;23.45;17.42;;;;;;;;;;6249377;22;20016;-88
2023/01/30 03:59:19;;;;;;;23.48;14.00;;;;;;;;;;6223340;22;20020;-87
2023/01/30 04:01:53;;;;;;;22.95;14.63;;;;;;;;;;6226970;22;20024;-89
2023/01/30 04:04:21;;;;;;;20.25;15.98;;;;;;;;;;6225060;22;20358;-90
2023/01/30 04:06:50;;;;;;;22.98;17.27;;;;;;;;;;6217906;23;20019;-82
2023/01/30 04:09:17;;;;;;;19.60;15.20;;;;;;;;;;6250891;23;20019;-83
2023/01/30 04:11:50;;;;;;;23.88;15.13;;;;;;;;;;6215525;23;20020;-82
2023/01/30 04:14:21;;;;;;;19.20;14.20;;;;;;;;;;6251695;23;20068;-83
2023/01/30 04:17:07;;;;;;;24.95;15.90;;;;;;;;;;6247725;22;20008;-82
2023/01/30 04:20:07;;;;;;;21.75;17.02;;;;;;;;;;6240932;23;20079;-83
2023/01/30 04:22:37;;;;;;;21.60;15.32;;;;;;;;;;6251740;23;20020;-83
2023/01/30 04:25:05;;;;;;;17.58;14.18;;;;;;;;;;6252130;23;20016;-83
2023/01/30 04:27:37;;;;;;;18.95;13.43;;;;;;;;;;6219062;23;20019;-83
2023/01/30 04:30:20;;;;;;;20.38;16.73;;;;;;;;;;6215223;23;20023;-83
2023/01/30 04:32:49;;;;;;;20.23;13.63;;;;;;;;;;6243143;23;20353;-83
2023/01/30 04:35:19;;;;;;;22.73;17.35;;;;;;;;;;6241414;23;20023;-83
2023/01/30 04:37:48;;;;;;;20.02;13.45;;;;;;;;;;6241007;22;20008;-83
2023/01/30 04:40:21;;;;;;;23.80;15.75;;;;;;;;;;6240168;23;20023;-83
2023/01/30 04:42:49;;;;;;;20.25;15.18;;;;;;;;;;6217224;23;20016;-84
2023/01/30 04:45:37;;;;;;;17.95;14.10;;;;;;;;;;6253718;23;20027;-84
2023/01/30 04:48:05;;;;;;;22.85;15.38;;;;;;;;;;6243422;22;20463;-83
2023/01/30 04:50:35;;;;;;;19.20;15.02;;;;;;;;;;6217324;23;20016;-84
2023/01/30 04:53:06;;;;;;;15.35;13.02;;;;;;;;;;6243611;23;20012;-84
2023/01/30 04:55:33;;;;;;;20.60;15.20;;;;;;;;;;6243545;23;20016;-84
2023/01/30 04:58:03;;;;;;;17.77;14.20;;;;;;;;;;6241540;22;20020;-84
2023/01/30 05:00:31;;;;;;;19.15;12.63;;;;;;;;;;6251708;23;20016;-84
2023/01/30 05:03:00;;;;;;;23.00;15.18;;;;;;;;;;6254426;23;20020;-84
2023/01/30 05:05:30;;;;;;;21.63;13.93;;;;;;;;;;6242433;23;20019;-84
2023/01/30 05:08:00;;;;;;;23.17;14.73;;;;;;;;;;6263187;22;20022;-84
2023/01/30 05:10:31;;;;;;;21.65;14.60;;;;;;;;;;6246421;22;20038;-84
2023/01/30 05:13:02;;;;;;;20.02;16.10;;;;;;;;;;6222701;22;20039;-84
2023/01/30 05:15:32;;;;;;;17.63;11.93;;;;;;;;;;6258707;22;20016;-84
2023/01/30 05:17:59;;;;;;;21.23;16.20;;;;;;;;;;6246638;22;20321;-84
2023/01/30 05:20:27;;;;;;;18.95;14.70;;;;;;;;;;6286131;22;20019;-84
2023/01/30 05:22:56;;;;;;;20.65;16.05;;;;;;;;;;6223492;22;20030;-84
2023/01/30 05:25:26;;;;;;;20.67;15.73;;;;;;;;;;6275344;22;20019;-85
2023/01/30 05:27:55;;;;;;;23.88;14.38;;;;;;;;;;6220300;22;20019;-83
2023/01/30 05:30:25;;;;;;;22.73;13.13;;;;;;;;;;6246769;22;20015;-83
2023/01/30 05:32:58;;;;;;;19.25;13.15;;;;;;;;;;6275163;22;20019;-83
2023/01/30 05:35:25;;;;;;;18.17;13.65;;;;;;;;;;6284119;22;20012;-84
2023/01/30 05:37:55;;;;;;;17.60;15.05;;;;;;;;;;6274010;22;20356;-83
2023/01/30 05:40:26;;;;;;;15.82;13.52;;;;;;;;;;6266055;22;20019;-84
2023/01/30 05:42:57;;;;;;;19.35;14.77;;;;;;;;;;6274915;22;20482;-84
2023/01/30 05:45:27;;;;;;;21.45;14.45;;;;;;;;;;6276403;22;20518;-84
2023/01/30 05:47:54;;;;;;;16.30;12.10;;;;;;;;;;6264303;22;20411;-84
2023/01/30 05:50:23;;;;;;;18.77;13.90;;;;;;;;;;6238263;22;20030;-84
2023/01/30 05:52:51;;;;;;;17.33;13.20;;;;;;;;;;6265569;22;20015;-83
2023/01/30 05:55:20;;;;;;;17.63;12.30;;;;;;;;;;6266095;22;20460;-83
2023/01/30 05:57:48;;;;;;;16.48;12.75;;;;;;;;;;6237500;22;20019;-83
2023/01/30 06:00:17;;;;;;;17.58;12.40;;;;;;;;;;6238674;22;20461;-84
2023/01/30 06:02:47;;;;;;;17.42;14.23;;;;;;;;;;6237526;22;20024;-84
2023/01/30 06:05:16;;;;;;;16.15;11.98;;;;;;;;;;6238777;22;20023;-84
2023/01/30 06:07:46;;;;;;;17.58;12.35;;;;;;;;;;6240737;22;20463;-83
2023/01/30 06:10:16;;;;;;;19.85;13.27;;;;;;;;;;6238614;22;20024;-84
2023/01/30 06:12:43;;;;;;;20.73;13.30;;;;;;;;;;6265344;22;20432;-84
2023/01/30 06:15:11;;;;;;;16.25;11.70;;;;;;;;;;6275302;22;20023;-84
2023/01/30 06:17:44;;;;;;;14.68;11.77;;;;;;;;;;6241101;22;20561;-84
2023/01/30 06:20:14;;;;;;;16.38;10.88;;;;;;;;;;6273375;22;20020;-84
2023/01/30 06:22:41;;;;;;;15.52;10.50;;;;;;;;;;6264796;22;20460;-83
2023/01/30 06:25:11;;;;;;;17.15;11.75;;;;;;;;;;6237811;22;20016;-84
2023/01/30 06:27:39;;;;;;;19.23;13.40;;;;;;;;;;6269404;22;20020;-83
2023/01/30 06:30:07;;;;;;;21.40;12.25;;;;;;;;;;6239023;22;20547;-84
2023/01/30 06:32:40;;;;;;;23.80;14.07;;;;;;;;;;6247522;22;20486;-83
2023/01/30 06:35:13;;;;;;;15.45;11.85;;;;;;;;;;6281773;22;20035;-83
2023/01/30 06:37:41;;;;;;;18.45;14.07;;;;;;;;;;6275561;22;20019;-84
2023/01/30 06:40:09;;;;;;;23.17;13.25;;;;;;;;;;6245412;22;20448;-84
2023/01/30 06:42:37;;;;;;;17.70;12.80;;;;;;;;;;6273556;22;20015;-84
2023/01/30 06:45:07;;;;;;;19.15;14.15;;;;;;;;;;6222523;22;20070;-83
2023/01/30 06:47:34;;;;;;;16.77;11.38;;;;;;;;;;6220923;22;20491;-83
2023/01/30 06:50:04;;;;;;;15.68;12.88;;;;;;;;;;6246819;22;20012;-83
2023/01/30 06:52:35;;;;;;;16.48;14.07;;;;;;;;;;6246928;22;20470;-84
2023/01/30 06:55:06;;;;;;;19.83;12.40;;;;;;;;;;6256192;22;20012;-84
2023/01/30 07:28:55;;;;;;;;;;;;;;;;;;;;;
2023/01/30 07:32:14;;;;;;;15.60;11.30;;;;;;;;;;6026183;23;20032;-82
2023/01/30 07:35:07;;;;;;;15.85;12.25;;;;;;;;;;6080443;23;20026;-83
2023/01/30 07:37:37;;;;;;;16.10;11.55;;;;;;;;;;6044611;23;20017;-83
2023/01/30 07:40:09;;;;;;;16.23;11.27;;;;;;;;;;6125506;23;20028;-83
2023/01/30 07:42:36;;;;;;;15.65;12.23;;;;;;;;;;6201584;23;20020;-84
2023/01/30 07:45:04;;;;;;;20.08;14.32;;;;;;;;;;6152895;23;20017;-83
2023/01/30 07:47:33;;;;;;;18.98;12.55;;;;;;;;;;6151205;23;20024;-83
2023/01/30 07:50:05;;;;;;;16.23;12.73;;;;;;;;;;6176926;23;20492;-82
2023/01/30 07:52:32;;;;;;;17.92;12.18;;;;;;;;;;6213126;23;20369;-83
2023/01/30 07:55:02;;;;;;;17.83;12.52;;;;;;;;;;6152398;23;20029;-83
2023/01/30 07:57:29;;;;;;;16.52;13.48;;;;;;;;;;6177673;23;20020;-83
2023/01/30 07:59:56;;;;;;;13.88;10.65;;;;;;;;;;6182595;23;20035;-83
2023/01/30 08:02:26;;;;;;;17.27;12.88;;;;;;;;;;6214617;23;20013;-84
2023/01/30 08:04:53;;;;;;;15.43;11.38;;;;;;;;;;6160885;23;20020;-83
2023/01/30 08:07:22;;;;;;;15.15;11.23;;;;;;;;;;6210568;23;20035;-83
2023/01/30 08:09:49;;;;;;;16.85;12.80;;;;;;;;;;6185906;23;20012;-83
2023/01/30 08:12:17;;;;;;;15.93;11.23;;;;;;;;;;6184610;23;20605;-83
2023/01/30 08:14:44;;;;;;;15.82;12.40;;;;;;;;;;6196362;23;20013;-83
2023/01/30 08:17:16;;;;;;;16.80;13.15;;;;;;;;;;6218576;23;20020;-83
2023/01/30 08:19:43;;;;;;;23.65;12.50;;;;;;;;;;6161629;23;20335;-83
2023/01/30 08:22:11;;;;;;;15.18;10.75;;;;;;;;;;6223629;23;20035;-83
2023/01/30 08:24:42;;;;;;;14.13;12.15;;;;;;;;;;6223737;23;20442;-83
2023/01/30 08:27:13;;;;;;;14.20;10.15;;;;;;;;;;6185597;23;20043;-83
2023/01/30 08:29:41;;;;;;;13.07;10.18;;;;;;;;;;6161317;23;20021;-84
2023/01/30 08:32:08;;;;;;;14.68;10.77;;;;;;;;;;6187941;23;20012;-84
2023/01/30 08:34:38;;;;;;;14.93;11.05;;;;;;;;;;6214529;23;20023;-83
2023/01/30 08:37:05;;;;;;;12.38;11.13;;;;;;;;;;6213861;23;20013;-83
2023/01/30 08:39:35;;;;;;;13.02;8.30;;;;;;;;;;6212346;23;20016;-84
2023/01/30 08:42:06;;;;;;;17.65;10.38;;;;;;;;;;6185838;23;20479;-83
2023/01/30 08:44:33;;;;;;;18.05;11.90;;;;;;;;;;6224178;23;20016;-83
2023/01/30 08:47:02;;;;;;;15.85;11.20;;;;;;;;;;6161807;23;20028;-83
2023/01/30 08:49:32;;;;;;;18.85;11.63;;;;;;;;;;6212245;23;20035;-83
2023/01/30 08:51:59;;;;;;;22.85;13.60;;;;;;;;;;6186159;23;20024;-84
2023/01/30 08:54:26;;;;;;;12.90;10.65;;;;;;;;;;6213836;23;20035;-83
2023/01/30 08:56:53;;;;;;;17.42;10.82;;;;;;;;;;6210199;23;20039;-84
2023/01/30 08:59:24;;;;;;;15.55;12.02;;;;;;;;;;6185906;23;20026;-84
2023/01/30 09:01:52;;;;;;;18.23;12.52;;;;;;;;;;6196492;23;20020;-84
2023/01/30 09:04:23;;;;;;;16.58;12.45;;;;;;;;;;6214313;23;20023;-84
2023/01/30 09:06:55;;;;;;;;;;;;;;;;;;6213168;23;20028;-84
2023/01/30 09:09:24;;;;;;;16.88;11.48;;;;;;;;;;6161318;23;19916;-84
2023/01/30 09:11:54;;;;;;;13.07;10.43;;;;;;;;;;6211258;23;20020;-83
2023/01/30 09:14:21;;;;;;;14.02;10.15;;;;;;;;;;6213170;23;20017;-83
2023/01/30 09:16:54;;;;;;;19.80;12.43;;;;;;;;;;6186802;23;20024;-83
2023/01/30 09:19:21;;;;;;;18.90;13.63;;;;;;;;;;6187221;23;20039;-84
2023/01/30 09:21:51;;;;;;;16.08;11.32;;;;;;;;;;6187132;23;20025;-84
2023/01/30 09:24:25;;;;;;;16.00;12.45;;;;;;;;;;6211415;23;20028;-83
2023/01/30 09:26:57;;;;;;;14.60;11.98;;;;;;;;;;6190858;23;20020;-83
2023/01/30 09:29:24;;;;;;;19.40;12.18;;;;;;;;;;6179753;23;20013;-83
2023/01/30 09:31:56;;;;;;;21.35;12.60;;;;;;;;;;6204555;23;20021;-83
2023/01/30 09:34:27;;;;;;;15.90;11.32;;;;;;;;;;6217661;23;20028;-83
2023/01/30 09:36:54;;;;;;;16.65;11.82;;;;;;;;;;6215630;23;20013;-84
2023/01/30 09:39:24;;;;;;;19.52;12.73;;;;;;;;;;6220979;23;20475;-84
2023/01/30 09:42:08;;;;;;;19.90;15.57;;;;;;;;;;6160959;23;20017;-84
2023/01/30 09:44:50;;;;;;;30.08;18.02;;;;;;;;;;6187309;23;20017;-84
2023/01/30 09:47:24;;;;;;;17.80;13.30;;;;;;;;;;6161350;23;20495;-84
2023/01/30 09:49:56;;;;;;;18.10;13.43;;;;;;;;;;6184256;23;20013;-84
2023/01/30 09:52:27;;;;;;;;;;;;;;;;;;6224308;23;20013;-84
2023/01/30 09:55:03;;;;;;;19.30;13.93;;;;;;;;;;6162954;23;19916;-84
2023/01/30 10:48:53;;;;;;;15.15;10.18;;;;;;;;;;6097120;22;1912804;-89
2023/01/30 10:51:31;;;;;;;13.70;9.68;;;;;;;;;;6143392;23;20028;-90
2023/01/30 10:54:02;;;;;;;11.70;9.98;;;;;;;;;;6115782;23;20028;-88
2023/01/30 10:56:37;;;;;;;11.40;9.55;;;;;;;;;;6121851;23;20018;-87
2023/01/30 10:59:21;;;;;;;11.18;9.00;;;;;;;;;;6156444;23;20506;-90
2023/01/30 11:01:57;;;;;;;9.70;7.70;;;;;;;;;;6146362;23;20023;-88
2023/01/30 11:07:24;;;;;;;10.93;9.25;;;;;;;;;;6147343;23;20484;-91
2023/01/30 11:09:51;;;;;;;10.88;7.80;;;;;;;;;;6117875;23;20022;-87
2023/01/30 11:12:19;;;;;;;15.95;10.52;;;;;;;;;;6145235;23;20460;-88
2023/01/30 11:14:52;;;;;;;17.95;9.63;;;;;;;;;;6118817;23;20014;-87
2023/01/30 11:17:30;;;;;;;14.00;8.35;;;;;;;;;;6123204;23;20024;-89
2023/01/30 11:20:03;;;;;;;11.88;8.93;;;;;;;;;;6117851;23;20697;-90
2023/01/30 11:22:33;;;;;;;13.48;8.98;;;;;;;;;;6120114;23;20650;-87
2023/01/30 11:25:06;;;;;;;15.88;9.52;;;;;;;;;;6118587;23;20439;-89
2023/01/30 11:27:35;;;;;;;13.18;11.73;;;;;;;;;;6125145;23;20017;-90
2023/01/30 11:30:11;;;;;;;13.45;8.75;;;;;;;;;;6123203;23;20048;-89
2023/01/30 11:32:38;;;;;;;13.38;10.05;;;;;;;;;;6120151;23;20013;-88
2023/01/30 11:35:23;;;;;;;13.10;9.73;;;;;;;;;;6118811;23;20364;-90
2023/01/30 11:37:52;;;;;;;15.60;13.13;;;;;;;;;;6114792;23;20334;-90
2023/01/30 11:40:25;;;;;;;12.13;10.23;;;;;;;;;;6115051;23;20025;-89
2023/01/30 11:42:59;;;;;;;11.85;10.65;;;;;;;;;;6112605;23;20023;-87
2023/01/30 11:45:29;;;;;;;13.90;9.35;;;;;;;;;;6086487;23;20059;-87
2023/01/30 11:47:58;;;;;;;11.23;8.02;;;;;;;;;;6102709;23;20481;-89
2023/01/30 11:50:34;;;;;;;12.63;9.18;;;;;;;;;;6128304;23;20025;-88
2023/01/30 11:53:12;;;;;;;13.25;10.05;;;;;;;;;;6103069;23;20617;-89
2023/01/30 11:55:45;;;;;;;15.00;10.43;;;;;;;;;;6126477;23;20520;-87
2023/01/30 11:58:18;;;;;;;12.63;8.90;;;;;;;;;;6128513;23;20240;-88
2023/01/30 12:00:49;;;;;;;10.32;9.25;;;;;;;;;;6102763;23;20025;-88
2023/01/30 12:03:21;;;;;;;13.45;9.25;;;;;;;;;;6127824;23;20612;-89
2023/01/30 12:06:15;;;;;;;12.10;9.65;;;;;;;;;;6127923;23;20351;-86
2023/01/30 12:08:46;;;;;;;15.98;9.90;;;;;;;;;;6083260;23;20029;-89
2023/01/30 12:11:30;;;;;;;14.35;9.88;;;;;;;;;;6129795;23;20373;-88
2023/01/30 12:14:09;;;;;;;14.60;9.05;;;;;;;;;;6131181;23;20025;-89
2023/01/30 12:16:48;;;;;;;14.32;9.68;;;;;;;;;;6135346;23;20028;-87
2023/01/30 12:19:28;;;;;;;11.60;9.10;;;;;;;;;;6109586;23;20071;-88
2023/01/30 12:22:11;;;;;;;13.52;10.05;;;;;;;;;;6112024;23;20021;-87
2023/01/30 12:24:44;;;;;;;13.38;9.25;;;;;;;;;;6163338;23;20010;-89
2023/01/30 12:27:17;;;;;;;12.48;8.82;;;;;;;;;;6170561;23;20378;-87
2023/01/30 12:29:55;;;;;;;13.52;7.75;;;;;;;;;;6109619;23;20032;-88
2023/01/30 12:32:28;;;;;;;13.32;8.80;;;;;;;;;;6134110;23;20021;-87
2023/01/30 12:35:05;;;;;;;10.75;7.72;;;;;;;;;;6110967;23;20022;-88
2023/01/30 12:37:55;;;;;;;14.30;9.02;;;;;;;;;;6086608;23;20021;-90
2023/01/30 12:40:36;;;;;;;13.32;9.48;;;;;;;;;;6134175;23;20025;-89
2023/01/30 12:43:25;;;;;;;13.20;8.93;;;;;;;;;;6110951;23;20018;-89
2023/01/30 12:46:06;;;;;;;11.63;7.90;;;;;;;;;;6145064;23;20032;-90
2023/01/30 12:48:48;;;;;;;10.90;8.90;;;;;;;;;;6108435;23;20018;-89
2023/01/30 12:51:25;;;;;;;12.85;8.63;;;;;;;;;;6111875;23;20356;-90
2023/01/30 12:54:08;;;;;;;12.35;7.57;;;;;;;;;;6109443;23;20027;-89
2023/01/30 12:57:08;;;;;;;12.52;9.02;;;;;;;;;;6110933;23;20036;-90
2023/01/30 12:59:47;;;;;;;9.95;7.65;;;;;;;;;;6111862;23;20018;-89
2023/01/30 13:02:32;;;;;;;10.02;8.65;;;;;;;;;;6144071;23;20017;-87
2023/01/30 13:05:20;;;;;;;11.48;8.85;;;;;;;;;;6109708;23;20029;-89
2023/01/30 13:08:00;;;;;;;9.77;7.80;;;;;;;;;;6109307;23;20477;-87
2023/01/30 13:10:37;;;;;;;14.77;9.70;;;;;;;;;;6105129;23;20021;-89
2023/01/30 13:13:11;;;;;;;8.73;7.32;;;;;;;;;;6106612;23;20021;-86
2023/01/30 13:15:45;;;;;;;11.95;7.85;;;;;;;;;;6142169;23;20019;-88
2023/01/30 13:18:23;;;;;;;8.25;7.45;;;;;;;;;;6141485;23;20036;-88
2023/01/30 13:21:00;;;;;;;11.52;7.10;;;;;;;;;;6167096;23;20018;-88
2023/01/30 13:23:36;;;;;;;9.05;7.82;;;;;;;;;;6131094;23;20023;-88
2023/01/30 13:26:08;;;;;;;8.90;6.80;;;;;;;;;;6130667;23;20022;-87
2023/01/30 13:28:38;;;;;;;11.77;8.55;;;;;;;;;;6130781;23;20024;-87
2023/01/30 13:31:08;;;;;;;11.57;8.18;;;;;;;;;;6106841;23;20084;-87
2023/01/30 13:33:38;;;;;;;12.45;8.43;;;;;;;;;;6165113;23;20017;-88
2023/01/30 13:36:12;;;;;;;8.13;6.80;;;;;;;;;;6107976;23;20368;-87
2023/01/30 13:38:44;;;;;;;8.88;6.97;;;;;;;;;;6149749;23;20020;-88
2023/01/30 13:41:17;;;;;;;9.20;8.30;;;;;;;;;;6107381;23;20030;-88
2023/01/30 13:43:49;;;;;;;14.65;9.98;;;;;;;;;;6107747;23;20017;-88
2023/01/30 13:46:22;;;;;;;9.82;8.05;;;;;;;;;;6106448;23;20023;-89
2023/01/30 13:48:57;;;;;;;8.60;6.82;;;;;;;;;;6130847;23;20024;-88
2023/01/30 13:51:50;;;;;;;11.52;8.77;;;;;;;;;;6138087;23;20029;-88
2023/01/30 13:54:29;;;;;;;9.43;6.53;;;;;;;;;;6104237;23;20035;-89
2023/01/30 13:57:05;;;;;;;8.55;7.25;;;;;;;;;;6111285;23;20020;-88
2023/01/30 14:00:03;;;;;;;10.15;6.97;;;;;;;;;;6130820;23;20014;-87
2023/01/30 14:02:39;;;;;;;;;;;;;;;;;;6157929;23;20590;-88
2023/01/30 14:05:09;;;;;;;10.00;6.55;;;;;;;;;;6107325;23;19935;-89
2023/01/30 14:07:40;;;;;;;7.57;6.88;;;;;;;;;;6104898;23;20021;-89
2023/01/30 14:10:20;;;;;;;7.50;6.70;;;;;;;;;;6105733;23;20022;-87
2023/01/30 14:12:50;;;;;;;8.25;6.90;;;;;;;;;;6129517;23;20022;-88
2023/01/30 14:15:24;;;;;;;9.05;6.95;;;;;;;;;;6104842;23;20052;-87
2023/01/30 14:18:04;;;;;;;10.63;8.63;;;;;;;;;;6104903;23;20020;-87
2023/01/30 14:20:33;;;;;;;8.85;7.13;;;;;;;;;;6128261;23;20021;-88
2023/01/30 14:23:05;;;;;;;8.23;5.95;;;;;;;;;;6153586;23;20021;-87
2023/01/30 14:25:48;;;;;;;7.60;5.65;;;;;;;;;;6130394;23;20010;-87
2023/01/30 14:28:54;;;;;;;10.85;7.45;;;;;;;;;;6128551;23;20032;-87
2023/01/30 14:32:02;;;;;;;6.47;5.32;;;;;;;;;;6104464;23;20079;-87
2023/01/30 14:34:59;;;;;;;6.80;5.15;;;;;;;;;;6123905;23;20460;-87
2023/01/30 14:37:57;;;;;;;7.78;6.00;;;;;;;;;;6101099;23;20017;-87
2023/01/30 14:41:09;;;;;;;8.07;5.63;;;;;;;;;;6129412;23;20022;-87
2023/01/30 14:43:48;;;;;;;7.80;5.57;;;;;;;;;;6111039;23;20018;-87
2023/01/30 14:46:50;;;;;;;7.50;4.78;;;;;;;;;;6104105;23;20361;-88
2023/01/30 14:49:34;;;;;;;6.88;6.07;;;;;;;;;;6104647;23;20018;-88
2023/01/30 14:52:03;;;;;;;5.80;4.97;;;;;;;;;;6128288;23;20025;-87
2023/01/30 14:54:37;;;;;;;7.13;5.45;;;;;;;;;;6105801;23;20021;-88
2023/01/30 14:57:22;;;;;;;8.75;6.70;;;;;;;;;;6129349;23;20633;-87
2023/01/30 14:59:52;;;;;;;8.35;5.18;;;;;;;;;;6128083;23;20032;-87
2023/01/30 15:02:26;;;;;;;10.52;6.55;;;;;;;;;;6103574;23;20017;-87
2023/01/30 15:05:07;;;;;;;11.90;7.90;;;;;;;;;;6103095;23;20025;-87
2023/01/30 15:07:38;;;;;;;7.82;5.65;;;;;;;;;;6105121;23;20365;-87
2023/01/30 15:10:22;;;;;;;5.75;4.70;;;;;;;;;;6104117;23;20028;-88
2023/01/30 15:13:14;;;;;;;8.13;5.38;;;;;;;;;;6163911;23;20017;-87
2023/01/30 15:15:51;;;;;;;5.32;4.43;;;;;;;;;;6104262;23;20017;-89
2023/01/30 15:19:02;;;;;;;8.93;5.50;;;;;;;;;;6129754;23;20017;-87
2023/01/30 15:21:48;;;;;;;12.27;6.32;;;;;;;;;;6105525;23;20021;-89
2023/01/30 15:24:36;;;;;;;10.73;5.55;;;;;;;;;;6129596;23;20029;-87
2023/01/30 15:27:12;;;;;;;10.55;8.82;;;;;;;;;;6130682;23;20037;-88
2023/01/30 15:30:04;;;;;;;11.23;7.82;;;;;;;;;;6144705;23;20009;-88
2023/01/30 15:32:35;;;;;;;9.50;7.32;;;;;;;;;;6106521;23;20365;-88
2023/01/30 15:35:23;;;;;;;10.98;6.63;;;;;;;;;;6106588;23;20017;-88
2023/01/30 15:37:55;;;;;;;11.90;7.32;;;;;;;;;;6106268;23;20040;-88
2023/01/30 15:40:28;;;;;;;7.30;6.55;;;;;;;;;;6106207;23;20028;-89
2023/01/30 15:43:12;;;;;;;8.93;6.93;;;;;;;;;;6107206;23;20373;-88
2023/01/30 15:45:48;;;;;;;8.68;6.50;;;;;;;;;;6106125;23;20024;-90
2023/01/30 15:48:46;;;;;;;9.70;5.88;;;;;;;;;;6160294;23;20013;-91
2023/01/30 15:51:16;;;;;;;11.15;7.25;;;;;;;;;;6105707;23;20033;-88
2023/01/30 15:53:45;;;;;;;9.27;6.47;;;;;;;;;;6113612;23;20029;-88
2023/01/30 15:56:18;;;;;;;8.63;6.88;;;;;;;;;;6108209;23;20591;-87
2023/01/30 15:58:46;;;;;;;9.20;7.35;;;;;;;;;;6106471;23;20014;-89
2023/01/30 16:01:21;;;;;;;9.60;7.53;;;;;;;;;;6131729;23;20017;-87
2023/01/30 16:03:53;;;;;;;7.85;6.22;;;;;;;;;;6104725;23;20040;-89
2023/01/30 16:06:25;;;;;;;8.05;6.38;;;;;;;;;;6106239;23;20017;-88
2023/01/30 16:08:59;;;;;;;8.02;7.22;;;;;;;;;;6121174;23;20028;-82
2023/01/30 16:11:38;;;;;;;10.40;7.05;;;;;;;;;;6127871;23;20021;-82
2023/01/30 16:14:11;;;;;;;12.15;9.10;;;;;;;;;;6153285;23;20032;-82
2023/01/30 16:16:43;;;;;;;6.28;5.47;;;;;;;;;;6152084;23;20017;-81
2023/01/30 16:19:20;;;;;;;10.88;6.90;;;;;;;;;;6151193;23;20021;-81
2023/01/30 16:21:57;;;;;;;9.13;6.30;;;;;;;;;;6153041;23;20028;-82
2023/01/30 16:24:31;;;;;;;8.75;6.15;;;;;;;;;;6163719;23;20018;-82
2023/01/30 16:27:08;;;;;;;8.77;7.35;;;;;;;;;;6162629;23;20013;-81
2023/01/30 16:29:49;;;;;;;11.95;7.70;;;;;;;;;;6163490;23;20021;-82
2023/01/30 16:32:18;;;;;;;9.13;7.68;;;;;;;;;;6163723;23;20013;-82
2023/01/30 16:35:26;;;;;;;9.60;8.07;;;;;;;;;;6150891;23;20025;-81
2023/01/30 16:37:57;;;;;;;10.02;7.53;;;;;;;;;;6158139;23;20028;-81